Time;durP1;ratioP1;P1;durP2;ratioP2;P2;SDS_P1;SDS_P2;PMS_P1;PMS_P2;Temp;Humidity;BMP_temperature;BMP_pressure;BME280_temperature;BME280_humidity;BME280_pressure;Samples;Min_cycle;Max_cycle;Signal;HPM_P1;HPM_P2
2022/10/09 00:00:06;;;;;;;;;16.25;15.75;;;;;15.79;48.81;101817.28;2088253;28;47392;-61
2022/10/09 00:01:20;;;;;;;;;15.80;14.20;;;;;15.79;49.14;101814.59;2094549;28;45842;-62
2022/10/09 00:02:20;;;;;;;;;15.80;12.40;;;;;15.79;49.18;101815.47;2096733;28;46076;-63
2022/10/09 00:03:20;;;;;;;;;15.50;14.00;;;;;15.79;48.74;101818.16;2078648;28;46375;-63
2022/10/09 00:04:21;;;;;;;;;15.25;14.25;;;;;15.79;49.09;101818.16;2081794;28;46794;-62
2022/10/09 00:05:25;;;;;;;;;17.75;16.00;;;;;15.78;48.87;101826.22;2091078;28;46544;-62
2022/10/09 00:06:29;;;;;;;;;12.80;12.80;;;;;15.76;49.23;101823.59;2087854;28;47107;-63
2022/10/09 00:07:29;;;;;;;;;13.40;13.20;;;;;15.73;49.08;101820.09;2091783;28;46385;-63
2022/10/09 00:08:30;;;;;;;;;12.25;12.25;;;;;15.72;48.97;101823.69;2088580;28;46278;-62
2022/10/09 00:09:31;;;;;;;;;13.00;13.00;;;;;15.70;49.18;101818.38;2095818;28;46256;-62
2022/10/09 00:10:31;;;;;;;;;17.75;16.50;;;;;15.68;48.94;101822.91;2094551;28;45467;-61
2022/10/09 00:11:33;;;;;;;;;12.00;12.00;;;;;15.68;49.18;101819.34;2088503;28;47009;-62
2022/10/09 00:12:33;;;;;;;;;15.20;13.40;;;;;15.68;49.35;101817.53;2093194;28;46340;-62
2022/10/09 00:13:34;;;;;;;;;8.00;8.00;;;;;15.66;49.08;101815.84;2094356;28;46616;-61
2022/10/09 00:14:35;;;;;;;;;12.00;12.00;;;;;15.63;49.41;101824.81;2090953;28;45931;-62
2022/10/09 00:15:40;;;;;;;;;11.75;11.75;;;;;15.62;49.28;101815.00;2090563;28;45620;-60
2022/10/09 00:16:41;;;;;;;;;11.20;10.60;;;;;15.62;49.04;101816.81;2092674;28;47262;-62
2022/10/09 00:17:41;;;;;;;;;14.75;13.00;;;;;15.60;49.17;101814.16;2095178;28;46613;-62
2022/10/09 00:18:42;;;;;;;;;16.75;12.75;;;;;15.60;49.33;101820.41;2104332;27;47709;-62
2022/10/09 00:19:42;;;;;;;;;7.60;7.60;;;;;15.60;49.37;101817.72;2092788;28;46346;-61
2022/10/09 00:20:45;;;;;;;;;9.00;8.25;;;;;15.59;49.58;101809.72;2085617;28;46464;-62
2022/10/09 00:21:46;;;;;;;;;13.80;13.80;;;;;15.58;49.19;101819.53;2086634;28;46660;-61
2022/10/09 00:22:46;;;;;;;;;14.25;14.25;;;;;15.56;49.08;101815.13;2094407;28;46552;-61
2022/10/09 00:23:47;;;;;;;;;9.00;8.25;;;;;15.56;49.43;101816.03;2087066;28;46742;-61
2022/10/09 00:24:48;;;;;;;;;15.80;13.00;;;;;15.55;49.30;101811.59;2087921;28;47035;-61
2022/10/09 00:26:00;;;;;;;;;9.75;9.75;;;;;15.56;49.58;101812.47;2096130;28;46277;-61
2022/10/09 00:27:00;;;;;;;;;10.00;10.00;;;;;15.55;49.26;101808.91;2087796;28;46709;-63
2022/10/09 00:28:02;;;;;;;;;12.25;11.50;;;;;15.55;49.24;101806.25;2095057;28;46338;-61
2022/10/09 00:29:03;;;;;;;;;15.60;15.20;;;;;15.55;49.53;101808.03;2096414;28;46200;-61
2022/10/09 00:30:04;;;;;;;;;10.75;10.75;;;;;15.53;49.35;101805.41;2096195;28;46198;-61
2022/10/09 00:31:06;;;;;;;;;11.00;11.00;;;;;15.52;49.77;101808.13;2096731;28;46342;-62
2022/10/09 00:32:06;;;;;;;;;11.00;10.60;;;;;15.49;49.35;101814.41;2090752;28;46369;-60
2022/10/09 00:33:07;;;;;;;;;12.00;12.00;;;;;15.49;49.67;101810.84;2090397;28;46728;-60
2022/10/09 00:34:07;;;;;;;;;11.00;11.00;;;;;15.48;49.51;101809.09;2088309;28;46881;-60
2022/10/09 00:35:07;;;;;;;;;14.50;13.00;;;;;15.48;49.45;101809.97;2086705;28;45615;-60
2022/10/09 00:36:14;;;;;;;;;13.25;13.25;;;;;15.48;49.24;101811.75;2096792;28;46822;-60
2022/10/09 00:37:14;;;;;;;;;9.60;9.60;;;;;15.47;49.86;101807.34;2091107;28;46302;-62
2022/10/09 00:38:15;;;;;;;;;12.00;12.00;;;;;15.46;49.40;101811.81;2093108;28;46437;-61
2022/10/09 00:39:15;;;;;;;;;9.75;9.75;;;;;15.45;49.92;101810.06;2094571;28;46462;-62
2022/10/09 00:40:16;;;;;;;;;12.50;10.50;;;;;15.44;49.59;101807.41;2091596;28;46938;-61
2022/10/09 00:41:23;;;;;;;;;10.00;10.00;;;;;15.43;49.60;101805.66;2100927;28;46168;-61
2022/10/09 00:42:25;;;;;;;;;10.80;9.80;;;;;15.44;49.66;101802.94;2096367;28;46557;-60
2022/10/09 00:43:50;;;;;;;;;9.80;9.40;;;;;15.44;49.71;101802.06;2093121;28;46861;-61
2022/10/09 00:44:56;;;;;;;;;9.00;9.00;;;;;15.42;49.42;101802.09;2094632;28;46930;-62
2022/10/09 00:45:57;;;;;;;;;10.40;10.40;;;;;15.42;49.80;101803.91;2095681;28;46486;-62
2022/10/09 00:46:58;;;;;;;;;11.00;9.75;;;;;15.40;49.58;101805.75;2094525;28;46762;-60
2022/10/09 00:48:02;;;;;;;;;14.60;13.20;;;;;15.38;49.84;101804.91;2095996;28;46957;-60
2022/10/09 00:49:24;;;;;;;;;10.80;10.40;;;;;15.36;49.69;101804.91;2088902;28;46462;-62
2022/10/09 00:50:39;;;;;;;;;9.00;9.00;;;;;15.36;49.53;101804.03;2092623;28;46482;-60
2022/10/09 00:51:41;;;;;;;;;10.60;10.60;;;;;15.35;49.37;101805.84;2094486;28;46653;-59
2022/10/09 00:52:43;;;;;;;;;11.40;10.00;;;;;15.34;49.50;101797.84;2092972;28;46498;-62
2022/10/09 00:53:43;;;;;;;;;11.60;11.60;;;;;15.34;49.84;101797.84;2091612;28;46735;-61
2022/10/09 00:54:44;;;;;;;;;12.50;12.50;;;;;15.32;49.81;101795.22;2085821;28;45498;-62
2022/10/09 00:55:44;;;;;;;;;13.00;12.00;;;;;15.31;49.75;101801.47;2086694;28;46238;-60
2022/10/09 00:56:45;;;;;;;;;9.75;9.75;;;;;15.30;49.64;101789.03;2096357;28;45208;-60
2022/10/09 00:57:46;;;;;;;;;10.80;10.60;;;;;15.30;49.56;101799.72;2096279;28;47281;-61
2022/10/09 00:58:52;;;;;;;;;12.25;11.75;;;;;15.29;49.92;101801.53;2091997;28;45749;-61
2022/10/09 00:59:52;;;;;;;;;13.60;12.60;;;;;15.28;49.96;101799.78;2092213;28;46429;-61
2022/10/09 01:00:52;;;;;;;;;11.75;11.75;;;;;15.29;49.72;101804.19;2096339;28;46076;-61
2022/10/09 01:01:53;;;;;;;;;10.75;10.75;;;;;15.28;49.70;101798.88;2094621;28;46870;-61
2022/10/09 01:02:53;;;;;;;;;12.75;12.75;;;;;15.27;49.88;101799.81;2090314;28;46313;-62
2022/10/09 01:03:54;;;;;;;;;12.75;12.25;;;;;15.25;50.10;101802.53;2091724;28;46871;-61
2022/10/09 01:04:54;;;;;;;;;8.75;8.75;;;;;15.25;49.88;101798.97;2093386;28;46254;-61
2022/10/09 01:06:09;;;;;;;;;11.00;11.00;;;;;15.26;49.80;101798.94;2096218;28;46598;-61
2022/10/09 01:07:35;;;;;;;;;11.40;10.00;;;;;15.25;49.79;101797.19;2086696;28;46840;-61
2022/10/09 01:08:46;;;;;;;;;5.80;5.80;;;;;15.24;49.85;101789.16;2086759;28;47073;-61
2022/10/09 01:09:54;;;;;;;;;14.00;12.20;;;;;15.23;50.03;101787.41;2093238;28;46538;-61
2022/10/09 01:11:00;;;;;;;;;11.20;10.00;;;;;15.22;49.80;101785.66;2091451;28;45539;-61
2022/10/09 01:12:15;;;;;;;;;13.60;12.40;;;;;15.20;50.33;101787.47;2090733;28;46973;-62
2022/10/09 01:13:31;;;;;;;;;11.00;10.40;;;;;15.17;49.83;101782.22;2095326;28;47009;-61
2022/10/09 01:14:38;;;;;;;;;12.40;11.40;;;;;15.17;50.13;101782.22;2092746;28;46380;-62
2022/10/09 01:16:13;;;;;;;;;11.00;11.00;;;;;15.17;50.49;101782.22;2093795;28;46900;-60
2022/10/09 01:17:28;;;;;;;;;12.00;12.00;;;;;15.17;49.95;101776.88;2070166;28;46456;-61
2022/10/09 01:18:42;;;;;;;;;10.40;10.40;;;;;15.16;50.22;101780.47;2070585;28;46502;-61
2022/10/09 01:20:13;;;;;;;;;12.00;10.40;;;;;15.15;49.84;101773.38;2070826;28;46881;-63
2022/10/09 01:21:19;;;;;;;;;13.20;12.20;;;;;15.12;50.02;101778.75;2071620;28;47513;-60
2022/10/09 01:22:38;;;;;;;;;11.60;10.60;;;;;15.11;50.26;101771.66;2070477;28;46495;-61
2022/10/09 01:24:11;;;;;;;;;10.00;8.40;;;;;15.10;50.14;101777.91;2070381;28;45853;-61
2022/10/09 01:25:22;;;;;;;;;11.40;10.20;;;;;15.08;49.99;101769.94;2041747;28;46224;-61
2022/10/09 01:26:36;;;;;;;;;13.60;11.00;;;;;15.06;50.50;101774.44;2046049;28;46287;-60
2022/10/09 01:27:37;;;;;;;;;11.60;10.20;;;;;15.05;50.51;101770.00;2046610;28;46491;-61
2022/10/09 01:28:46;;;;;;;;;10.75;10.00;;;;;15.02;50.30;101764.75;2046039;28;47204;-60
2022/10/09 01:29:50;;;;;;;;;12.80;11.80;;;;;15.01;50.20;101769.22;2045994;28;46420;-61
2022/10/09 01:30:50;;;;;;;;;9.20;8.80;;;;;15.02;50.08;101767.44;2046106;28;46491;-61
2022/10/09 01:31:51;;;;;;;;;7.00;6.25;;;;;15.01;50.33;101757.66;2046082;28;46641;-62
2022/10/09 01:32:54;;;;;;;;;10.25;10.25;;;;;15.01;50.22;101760.31;2045842;28;46419;-60
2022/10/09 01:33:56;;;;;;;;;9.00;9.00;;;;;14.99;50.60;101763.03;2046376;28;46481;-60
2022/10/09 01:34:59;;;;;;;;;11.20;10.40;;;;;14.99;50.43;101756.78;2046034;28;46490;-63
2022/10/09 01:36:00;;;;;;;;;8.20;8.20;;;;;14.99;50.33;101755.00;2045552;28;46449;-63
2022/10/09 01:37:02;;;;;;;;;8.60;8.00;;;;;14.98;50.03;101755.03;2046128;28;47048;-60
2022/10/09 01:38:03;;;;;;;;;7.00;7.00;;;;;14.96;50.21;101748.84;2045831;28;46556;-62
2022/10/09 01:39:08;;;;;;;;;11.00;11.00;;;;;14.94;50.66;101746.19;2045587;28;46578;-61
2022/10/09 01:40:09;;;;;;;;;10.40;10.00;;;;;14.92;50.59;101752.50;2043828;28;46613;-61
2022/10/09 01:41:10;;;;;;;;;9.80;8.80;;;;;14.91;50.62;101740.06;2050308;28;46471;-62
2022/10/09 01:42:12;;;;;;;;;11.00;11.00;;;;;14.92;50.57;101741.81;2047351;28;46617;-63
2022/10/09 01:43:13;;;;;;;;;8.80;7.00;;;;;14.91;50.49;101735.59;2052333;28;46615;-61
2022/10/09 01:44:25;;;;;;;;;10.25;9.25;;;;;14.91;50.98;101740.94;2037812;28;45824;-61
2022/10/09 01:45:38;;;;;;;;;8.00;7.40;;;;;14.91;50.84;101735.59;2039476;28;46931;-63
2022/10/09 01:46:39;;;;;;;;;9.00;8.00;;;;;14.90;50.61;101735.63;2045974;28;46696;-63
2022/10/09 01:47:39;;;;;;;;;8.75;8.75;;;;;14.89;50.84;101733.88;2046241;28;46710;-61
2022/10/09 01:48:40;;;;;;;;;8.00;8.00;;;;;14.88;50.67;101732.13;2045860;28;46749;-60
2022/10/09 01:50:13;;;;;;;;;12.25;10.75;;;;;14.87;50.53;101722.34;2046342;28;46054;-60
2022/10/09 01:51:16;;;;;;;;;8.40;8.00;;;;;14.86;50.66;101723.22;2046111;28;46106;-61
2022/10/09 01:52:19;;;;;;;;;9.80;9.00;;;;;14.86;51.03;101728.56;2045839;28;45618;-62
2022/10/09 01:53:21;;;;;;;;;8.20;8.20;;;;;14.83;50.54;101724.19;2045950;28;46880;-63
2022/10/09 01:54:38;;;;;;;;;11.40;9.00;;;;;14.83;50.54;101720.63;2049496;28;46329;-61
2022/10/09 01:55:38;;;;;;;;;9.80;9.00;;;;;14.80;50.82;101713.56;2063372;28;46660;-61
2022/10/09 01:56:41;;;;;;;;;11.50;11.50;;;;;14.80;50.93;101720.72;2064623;28;46736;-62
2022/10/09 01:57:54;;;;;;;;;11.00;11.00;;;;;14.80;51.25;101721.59;2054132;28;46574;-61
2022/10/09 01:58:58;;;;;;;;;7.20;7.20;;;;;14.80;50.94;101716.25;2052710;28;47043;-61
2022/10/09 02:00:02;;;;;;;;;9.60;9.60;;;;;14.80;50.35;101721.59;2065182;28;46646;-61
2022/10/09 02:01:15;;;;;;;;;9.00;8.60;;;;;14.82;50.80;101711.75;2063258;28;46530;-61
2022/10/09 02:02:16;;;;;;;;;10.00;10.00;;;;;14.83;50.92;101712.63;2101295;27;46641;-60
2022/10/09 02:03:18;;;;;;;;;13.00;12.00;;;;;14.82;51.07;101706.41;2099868;27;45932;-61
2022/10/09 02:04:19;;;;;;;;;10.80;9.20;;;;;14.83;50.80;101713.50;2095763;28;46578;-61
2022/10/09 02:05:26;;;;;;;;;13.60;11.80;;;;;14.81;51.04;101709.13;2100966;28;46924;-62
2022/10/09 02:06:29;;;;;;;;;11.00;9.40;;;;;14.81;50.87;101707.31;2097155;28;46816;-62
2022/10/09 02:07:31;;;;;;;;;10.20;10.20;;;;;14.81;50.85;101707.31;2091895;28;47094;-59
2022/10/09 02:08:35;;;;;;;;;11.60;11.60;;;;;14.81;50.79;101704.66;2096529;28;46790;-62
2022/10/09 02:09:38;;;;;;;;;11.00;11.00;;;;;14.80;50.78;101704.69;2094194;28;46395;-62
2022/10/09 02:10:41;;;;;;;;;15.40;12.40;;;;;14.79;50.86;101706.47;2089183;28;46848;-62
2022/10/09 02:11:46;;;;;;;;;9.40;9.40;;;;;14.79;50.84;101708.28;2104635;28;46506;-61
2022/10/09 02:12:53;;;;;;;;;13.40;12.80;;;;;14.77;51.21;101700.31;2097446;28;46887;-62
2022/10/09 02:13:54;;;;;;;;;12.40;12.20;;;;;14.76;50.82;101695.88;2100580;28;46394;-61
2022/10/09 02:14:55;;;;;;;;;14.20;11.20;;;;;14.75;50.90;101688.78;2096155;28;46159;-61
2022/10/09 02:16:15;;;;;;;;;9.50;9.25;;;;;14.76;51.03;101689.66;2099256;28;46644;-62
2022/10/09 02:17:22;;;;;;;;;10.80;10.00;;;;;14.77;50.83;101692.28;2088734;28;46507;-62
2022/10/09 02:18:38;;;;;;;;;10.00;10.00;;;;;14.75;50.86;101694.13;2089589;28;45912;-61
2022/10/09 02:19:51;;;;;;;;;11.40;10.80;;;;;14.77;51.08;101694.06;2088228;28;46466;-63
2022/10/09 02:20:59;;;;;;;;;13.00;12.00;;;;;14.76;51.07;101695.00;2089414;28;46138;-60
2022/10/09 02:22:14;;;;;;;;;10.60;10.20;;;;;14.75;51.14;101695.91;2088905;28;46699;-61
2022/10/09 02:23:17;;;;;;;;;12.60;12.00;;;;;14.75;50.87;101693.25;2089617;28;46298;-60
2022/10/09 02:24:20;;;;;;;;;11.60;11.60;;;;;14.73;51.04;101695.91;2090014;28;45617;-62
2022/10/09 02:25:20;;;;;;;;;14.20;14.20;;;;;14.72;51.35;101689.69;2089226;28;46920;-63
2022/10/09 02:26:21;;;;;;;;;11.75;11.75;;;;;14.71;51.20;101684.38;2096299;28;46329;-62
2022/10/09 02:27:22;;;;;;;;;10.20;8.80;;;;;14.70;51.37;101683.50;2095781;28;46774;-60
2022/10/09 02:28:23;;;;;;;;;11.25;9.25;;;;;14.70;51.06;101678.16;2089202;28;46521;-61
2022/10/09 02:29:24;;;;;;;;;10.25;9.75;;;;;14.70;50.82;101683.50;2093818;28;46380;-61
2022/10/09 02:30:28;;;;;;;;;12.00;12.00;;;;;14.70;50.94;101679.97;2097156;28;45488;-61
2022/10/09 02:31:32;;;;;;;;;12.80;11.00;;;;;14.67;51.27;101670.25;2096263;28;46758;-61
2022/10/09 02:32:33;;;;;;;;;12.00;9.80;;;;;14.66;50.98;101675.63;2094782;28;46833;-64
2022/10/09 02:33:34;;;;;;;;;7.25;7.00;;;;;14.65;51.36;101673.88;2079444;28;46010;-61
2022/10/09 02:34:34;;;;;;;;;8.75;8.75;;;;;14.63;51.06;101675.69;2067136;28;46796;-61
2022/10/09 02:35:36;;;;;;;;;12.00;12.00;;;;;14.61;51.39;101666.81;2089748;28;46229;-60
2022/10/09 02:36:38;;;;;;;;;10.40;8.80;;;;;14.58;51.20;101673.09;2093277;28;46401;-61
2022/10/09 02:37:38;;;;;;;;;9.60;9.60;;;;;14.59;51.36;101679.34;2089058;28;47069;-61
2022/10/09 02:38:38;;;;;;;;;11.00;10.00;;;;;14.58;51.49;101667.78;2086564;28;46346;-60
2022/10/09 02:39:39;;;;;;;;;13.00;11.00;;;;;14.56;51.85;101672.28;2088287;28;46556;-61
2022/10/09 02:40:40;;;;;;;;;10.80;9.80;;;;;14.56;51.63;101672.28;2092541;28;46748;-60
2022/10/09 02:41:40;;;;;;;;;8.75;8.75;;;;;14.57;51.25;101660.66;2106373;27;46659;-60
2022/10/09 02:42:40;;;;;;;;;10.00;10.00;;;;;14.57;51.42;101659.78;2096443;27;46804;-62
2022/10/09 02:43:41;;;;;;;;;10.25;9.50;;;;;14.57;51.45;101670.47;2089203;28;46439;-60
2022/10/09 02:44:41;;;;;;;;;14.25;13.25;;;;;14.56;51.77;101666.94;2089046;28;46181;-60
2022/10/09 02:45:42;;;;;;;;;11.25;10.50;;;;;14.55;51.36;101665.19;2091462;28;46945;-61
2022/10/09 02:46:42;;;;;;;;;12.50;11.75;;;;;14.54;51.31;101666.09;2089104;28;46150;-62
2022/10/09 02:47:42;;;;;;;;;14.75;13.00;;;;;14.54;51.40;101659.88;2088953;28;46518;-62
2022/10/09 02:48:43;;;;;;;;;10.75;10.75;;;;;14.55;51.36;101665.19;2093901;28;46987;-63
2022/10/09 02:49:43;;;;;;;;;12.75;11.00;;;;;14.55;51.31;101666.97;2095839;28;46257;-61
2022/10/09 02:50:43;;;;;;;;;12.50;12.25;;;;;14.56;51.28;101661.59;2088911;28;46470;-60
2022/10/09 02:51:43;;;;;;;;;15.75;14.75;;;;;14.56;51.34;101660.72;2070018;28;46581;-61
2022/10/09 02:52:44;;;;;;;;;12.75;11.00;;;;;14.56;51.67;101661.59;2062978;28;46317;-60
2022/10/09 02:53:44;;;;;;;;;13.00;13.00;;;;;14.55;51.33;101659.84;2090895;28;46419;-62
2022/10/09 02:54:45;;;;;;;;;13.50;13.00;;;;;14.54;51.29;101660.75;2091168;28;45633;-61
2022/10/09 02:55:45;;;;;;;;;11.50;11.25;;;;;14.53;51.27;101664.34;2089962;28;45044;-63
2022/10/09 02:56:45;;;;;;;;;15.50;15.25;;;;;14.52;51.67;101659.03;2091885;28;46341;-62
2022/10/09 02:57:46;;;;;;;;;11.25;11.25;;;;;14.50;51.27;101661.75;2088766;28;47019;-62
2022/10/09 02:58:46;;;;;;;;;10.75;9.25;;;;;14.47;51.71;101653.78;2095907;28;46685;-62
2022/10/09 02:59:46;;;;;;;;;11.75;11.75;;;;;14.47;51.81;101655.56;2091438;28;45069;-62
2022/10/09 03:00:51;;;;;;;;;17.00;15.50;;;;;14.47;51.82;101652.91;2096917;28;45790;-62
2022/10/09 03:01:51;;;;;;;;;13.60;12.80;;;;;14.47;51.50;101651.09;2100419;28;46527;-62
2022/10/09 03:02:52;;;;;;;;;10.50;10.25;;;;;14.46;51.81;101652.03;2090790;28;45501;-61
2022/10/09 03:03:52;;;;;;;;;11.50;11.00;;;;;14.43;51.82;101647.59;2101306;28;46814;-61
2022/10/09 03:04:53;;;;;;;;;11.00;10.50;;;;;14.43;51.58;101652.06;2101055;28;46062;-62
2022/10/09 03:06:11;;;;;;;;;11.00;10.25;;;;;14.40;51.92;101649.47;2091917;28;46709;-61
2022/10/09 03:07:11;;;;;;;;;10.00;10.00;;;;;14.39;51.83;101647.72;2088413;28;46221;-62
2022/10/09 03:08:13;;;;;;;;;13.25;11.25;;;;;14.40;51.69;101652.16;2099179;28;46212;-60
2022/10/09 03:09:13;;;;;;;;;11.80;11.20;;;;;14.40;51.71;101652.16;2099097;28;46462;-60
2022/10/09 03:10:13;;;;;;;;;13.75;13.00;;;;;14.39;52.03;101642.38;2104456;28;46635;-61
2022/10/09 03:11:15;;;;;;;;;11.75;11.75;;;;;14.37;52.05;101645.09;2095929;28;46159;-61
2022/10/09 03:12:20;;;;;;;;;15.20;14.60;;;;;14.37;52.10;101655.78;2098991;28;47015;-62
2022/10/09 03:13:20;;;;;;;;;13.00;13.00;;;;;14.37;52.05;101644.22;2103836;28;46299;-61
2022/10/09 03:14:20;;;;;;;;;10.25;9.25;;;;;14.37;52.12;101642.41;2098246;28;46009;-62
2022/10/09 03:15:20;;;;;;;;;16.00;15.75;;;;;14.36;52.07;101640.66;2083670;28;46587;-61
2022/10/09 03:16:23;;;;;;;;;13.50;13.50;;;;;14.35;51.79;101641.53;2087745;28;46170;-62
2022/10/09 03:17:23;;;;;;;;;16.00;16.00;;;;;14.36;51.87;101639.78;2088512;28;46995;-62
2022/10/09 03:18:24;;;;;;;;;18.50;16.75;;;;;14.35;51.81;101635.31;2102456;28;46834;-62
2022/10/09 03:19:24;;;;;;;;;14.75;14.00;;;;;14.34;52.19;101639.78;2096891;28;46715;-61
2022/10/09 03:20:24;;;;;;;;;12.75;12.75;;;;;14.33;52.04;101632.69;2098615;28;46402;-62
2022/10/09 03:21:27;;;;;;;;;16.25;16.25;;;;;14.32;52.06;101636.28;2070641;28;45605;-62
2022/10/09 03:22:27;;;;;;;;;17.00;16.40;;;;;14.32;52.07;101630.94;2071133;28;47435;-63
2022/10/09 03:23:28;;;;;;;;;14.50;14.25;;;;;14.32;51.83;101628.28;2088603;28;46275;-61
2022/10/09 03:24:28;;;;;;;;;17.50;17.50;;;;;14.32;51.93;101632.72;2089871;28;46800;-62
2022/10/09 03:25:29;;;;;;;;;14.25;13.75;;;;;14.33;51.90;101626.47;2089267;28;46386;-60
2022/10/09 03:26:29;;;;;;;;;14.25;13.00;;;;;14.33;51.96;101629.16;2103817;28;46235;-62
2022/10/09 03:27:29;;;;;;;;;18.25;17.50;;;;;14.34;52.05;101630.91;2103992;28;46278;-63
2022/10/09 03:28:31;;;;;;;;;15.25;14.75;;;;;14.34;51.82;101633.56;2105424;28;45312;-62
2022/10/09 03:29:31;;;;;;;;;15.20;14.00;;;;;14.32;52.03;101627.41;2090809;28;46436;-60
2022/10/09 03:30:31;;;;;;;;;17.00;17.00;;;;;14.31;52.09;101631.84;2088323;28;45875;-61
2022/10/09 03:31:31;;;;;;;;;16.50;15.25;;;;;14.29;52.27;101627.47;2097521;28;46591;-62
2022/10/09 03:32:32;;;;;;;;;19.25;17.25;;;;;14.28;52.22;101631.06;2094769;28;46621;-62
2022/10/09 03:33:33;;;;;;;;;17.25;15.50;;;;;14.27;52.19;101623.97;2088396;28;46940;-60
2022/10/09 03:34:34;;;;;;;;;17.20;17.20;;;;;14.26;52.05;101627.53;2097287;28;46379;-62
2022/10/09 03:35:34;;;;;;;;;14.75;13.75;;;;;14.24;51.98;101627.59;2090982;28;46419;-60
2022/10/09 03:36:34;;;;;;;;;15.00;13.00;;;;;14.23;52.24;101625.81;2093615;28;46470;-62
2022/10/09 03:37:35;;;;;;;;;16.00;15.00;;;;;14.24;52.02;101626.72;2094941;28;46250;-61
2022/10/09 03:38:35;;;;;;;;;17.25;17.00;;;;;14.21;51.98;101624.97;2092008;28;45698;-61
2022/10/09 03:39:35;;;;;;;;;17.25;16.25;;;;;14.20;51.96;101619.66;2095740;28;47194;-61
2022/10/09 03:40:35;;;;;;;;;13.00;13.00;;;;;14.18;52.16;101625.03;2093226;28;46842;-61
2022/10/09 03:41:36;;;;;;;;;16.25;14.25;;;;;14.18;52.20;101621.50;2101843;28;46692;-61
2022/10/09 03:42:36;;;;;;;;;12.50;11.50;;;;;14.17;52.43;101617.06;2095610;28;46277;-60
2022/10/09 03:43:36;;;;;;;;;16.75;14.50;;;;;14.17;51.96;101622.41;2094322;28;47037;-60
2022/10/09 03:44:37;;;;;;;;;14.25;13.00;;;;;14.13;52.21;101617.13;2096702;28;45538;-61
2022/10/09 03:45:43;;;;;;;;;15.25;15.25;;;;;14.13;52.18;101617.13;2100616;28;46679;-62
2022/10/09 03:46:43;;;;;;;;;17.20;14.60;;;;;14.13;52.45;101622.47;2101093;28;46807;-61
2022/10/09 03:47:43;;;;;;;;;12.75;12.75;;;;;14.13;52.55;101619.81;2097284;28;45741;-61
2022/10/09 03:48:44;;;;;;;;;14.25;13.75;;;;;14.12;52.23;101620.72;2091070;28;46842;-61
2022/10/09 03:49:45;;;;;;;;;16.00;15.00;;;;;14.13;52.30;101624.28;2088705;28;46323;-61
2022/10/09 03:50:46;;;;;;;;;14.00;14.00;;;;;14.13;52.21;101618.94;2096797;28;46543;-61
2022/10/09 03:51:46;;;;;;;;;13.00;11.80;;;;;14.13;52.36;101610.94;2096283;28;46791;-61
2022/10/09 03:52:46;;;;;;;;;12.00;12.00;;;;;14.12;52.45;101614.50;2096808;28;46170;-61
2022/10/09 03:53:47;;;;;;;;;16.75;13.00;;;;;14.11;52.33;101618.97;2091233;28;46270;-61
2022/10/09 03:54:47;;;;;;;;;14.00;12.00;;;;;14.12;52.24;101614.50;2090786;28;45268;-62
2022/10/09 03:55:47;;;;;;;;;14.50;14.25;;;;;14.12;52.44;101617.19;2096657;28;46202;-61
2022/10/09 03:56:48;;;;;;;;;13.50;13.00;;;;;14.10;52.72;101619.88;2097458;28;46941;-61
2022/10/09 03:57:48;;;;;;;;;14.50;12.75;;;;;14.09;52.22;101614.56;2088242;28;46605;-62
2022/10/09 03:58:48;;;;;;;;;14.75;13.50;;;;;14.07;52.44;101627.06;2097107;28;46400;-60
2022/10/09 03:59:48;;;;;;;;;11.25;11.25;;;;;14.06;52.26;101619.97;2097640;28;45567;-60
2022/10/09 04:00:53;;;;;;;;;13.25;13.00;;;;;14.04;52.41;101625.34;2089698;28;47047;-61
2022/10/09 04:01:53;;;;;;;;;13.40;13.40;;;;;14.03;52.51;101620.03;2100869;28;46500;-62
2022/10/09 04:02:54;;;;;;;;;15.25;13.00;;;;;14.02;52.32;101619.16;2096651;28;46298;-61
2022/10/09 04:03:54;;;;;;;;;12.00;11.00;;;;;14.00;52.47;101615.66;2092331;28;46820;-61
2022/10/09 04:04:55;;;;;;;;;14.25;13.50;;;;;13.99;52.77;101613.03;2093719;28;46471;-61
2022/10/09 04:05:55;;;;;;;;;15.25;14.75;;;;;13.99;52.52;101615.69;2096077;28;47165;-60
2022/10/09 04:06:55;;;;;;;;;14.00;14.00;;;;;14.00;52.72;101622.78;2102364;28;46419;-61
2022/10/09 04:07:55;;;;;;;;;13.75;13.50;;;;;13.98;52.80;101614.81;2091975;28;46633;-62
2022/10/09 04:08:56;;;;;;;;;13.00;13.00;;;;;13.98;52.84;101617.47;2094125;28;46101;-61
2022/10/09 04:09:56;;;;;;;;;9.50;9.50;;;;;13.97;52.84;101612.16;2102054;28;46656;-61
2022/10/09 04:11:00;;;;;;;;;12.25;12.25;;;;;13.94;52.57;101610.44;2094776;28;46486;-62
2022/10/09 04:12:01;;;;;;;;;13.00;13.00;;;;;13.92;52.94;101611.38;2095411;28;46672;-61
2022/10/09 04:13:01;;;;;;;;;14.25;13.50;;;;;13.91;52.64;101609.63;2094135;28;47593;-62
2022/10/09 04:14:02;;;;;;;;;14.00;11.75;;;;;13.90;52.90;101615.88;2094200;28;46423;-61
2022/10/09 04:15:03;;;;;;;;;12.60;12.60;;;;;13.88;52.69;101615.03;2089429;28;46266;-62
2022/10/09 04:16:04;;;;;;;;;13.20;13.20;;;;;13.87;52.99;101614.16;2090740;28;46906;-61
2022/10/09 04:17:05;;;;;;;;;12.75;11.50;;;;;13.84;52.68;101612.41;2089126;28;46500;-62
2022/10/09 04:18:05;;;;;;;;;13.50;12.25;;;;;13.83;52.91;101609.78;2096945;28;45609;-63
2022/10/09 04:19:05;;;;;;;;;12.00;12.00;;;;;13.83;52.93;101612.44;2096921;28;46362;-62
2022/10/09 04:20:06;;;;;;;;;12.50;12.50;;;;;13.82;52.94;101614.22;2100957;28;44987;-62
2022/10/09 04:21:07;;;;;;;;;10.75;10.25;;;;;13.82;53.03;101613.34;2097296;28;45874;-64
2022/10/09 04:22:07;;;;;;;;;10.00;10.00;;;;;13.81;52.88;101617.81;2087444;28;46440;-61
2022/10/09 04:23:07;;;;;;;;;14.50;12.50;;;;;13.80;52.97;101613.38;2087752;28;46395;-61
2022/10/09 04:24:08;;;;;;;;;14.75;14.00;;;;;13.79;53.00;101614.31;2094847;28;46359;-62
2022/10/09 04:25:08;;;;;;;;;12.25;12.00;;;;;13.80;53.33;101621.38;2093560;28;46945;-61
2022/10/09 04:26:11;;;;;;;;;12.25;11.25;;;;;13.80;53.09;101613.38;2092777;28;46274;-64
2022/10/09 04:27:12;;;;;;;;;13.80;13.80;;;;;13.80;53.03;101609.84;2096703;28;46711;-61
2022/10/09 04:28:12;;;;;;;;;9.50;9.25;;;;;13.81;52.92;101606.25;2095688;28;46136;-62
2022/10/09 04:29:13;;;;;;;;;13.25;13.25;;;;;13.81;53.12;101609.81;2096062;28;46780;-60
2022/10/09 04:30:13;;;;;;;;;9.75;9.75;;;;;13.81;52.96;101611.59;2089494;28;46850;-62
2022/10/09 04:31:13;;;;;;;;;16.75;14.50;;;;;13.80;52.79;101605.38;2094528;28;46323;-61
2022/10/09 04:32:14;;;;;;;;;14.00;12.50;;;;;13.78;52.87;101609.88;2094463;28;46657;-62
2022/10/09 04:33:14;;;;;;;;;12.00;11.25;;;;;13.79;52.87;101606.28;2095311;28;46162;-61
2022/10/09 04:34:15;;;;;;;;;13.50;12.25;;;;;13.78;52.94;101607.22;2087294;28;46200;-61
2022/10/09 04:35:15;;;;;;;;;13.00;13.00;;;;;13.79;52.97;101605.41;2087810;28;46597;-60
2022/10/09 04:36:16;;;;;;;;;14.50;14.50;;;;;13.78;52.83;101606.34;2089624;28;46818;-61
2022/10/09 04:37:16;;;;;;;;;15.00;13.00;;;;;13.79;53.13;101613.41;2091383;28;46514;-63
2022/10/09 04:38:17;;;;;;;;;10.50;10.50;;;;;13.77;52.98;101605.44;2092844;28;46486;-62
2022/10/09 04:39:17;;;;;;;;;11.00;11.00;;;;;13.75;53.02;101603.75;2094999;28;46330;-61
2022/10/09 04:40:18;;;;;;;;;12.50;12.50;;;;;13.75;52.89;101612.63;2095206;28;46217;-63
2022/10/09 04:41:18;;;;;;;;;13.25;11.75;;;;;13.73;53.37;101611.78;2099535;28;46913;-61
2022/10/09 04:42:18;;;;;;;;;9.75;9.25;;;;;13.73;53.09;101609.09;2092727;28;46722;-62
2022/10/09 04:43:18;;;;;;;;;10.75;9.00;;;;;13.72;53.15;101607.34;2086708;28;46092;-62
2022/10/09 04:44:19;;;;;;;;;11.25;11.25;;;;;13.71;53.21;101605.56;2094046;28;46580;-61
2022/10/09 04:45:19;;;;;;;;;12.25;11.25;;;;;13.69;52.70;101603.84;2096491;28;46501;-61
2022/10/09 04:46:19;;;;;;;;;11.00;11.00;;;;;13.68;53.25;101602.97;2096695;28;45516;-61
2022/10/09 04:47:20;;;;;;;;;10.25;10.25;;;;;13.67;53.05;101603.00;2101061;28;46801;-61